createdAt,value
2019-04-05T00:02:28.023Z,3.25
2019-04-05T00:05:05.540Z,3.60
2019-04-05T00:07:43.363Z,3.33
2019-04-05T00:10:21.484Z,3.47
2019-04-05T00:12:59.253Z,3.50
2019-04-05T00:15:38.090Z,4.10
2019-04-05T00:18:13.074Z,3.72
2019-04-05T00:20:50.703Z,4.30
2019-04-05T00:23:28.327Z,10.63
2019-04-05T00:26:05.852Z,6.95
2019-04-05T00:28:43.376Z,6.08
2019-04-05T00:31:21.228Z,3.52
2019-04-05T00:33:58.961Z,3.17
2019-04-05T00:36:36.806Z,1.90
2019-04-05T00:39:15.963Z,2.47
2019-04-05T00:41:53.651Z,2.45
2019-04-05T00:44:31.386Z,2.40
2019-04-05T00:47:08.948Z,2.85
2019-04-05T00:49:46.591Z,2.65
2019-04-05T00:52:24.262Z,2.75
2019-04-05T00:55:01.975Z,3.40
2019-04-05T00:57:39.550Z,2.90
2019-04-05T01:00:18.287Z,2.50
2019-04-05T01:02:56.095Z,2.55
2019-04-05T01:05:33.851Z,2.87
2019-04-05T01:08:11.616Z,3.02
2019-04-05T01:10:49.335Z,2.98
2019-04-05T01:13:26.932Z,2.95
2019-04-05T01:16:04.612Z,2.45
2019-04-05T01:18:42.207Z,2.40
2019-04-05T01:21:22.586Z,2.75
2019-04-05T01:24:07.394Z,2.60
2019-04-05T01:26:49.919Z,2.77
2019-04-05T01:29:28.114Z,2.70
2019-04-05T01:32:05.936Z,2.90
2019-04-05T01:34:43.725Z,3.25
2019-04-05T01:37:21.336Z,2.90
2019-04-05T01:39:59.025Z,3.33
2019-04-05T01:42:37.051Z,3.00
2019-04-05T01:45:15.421Z,3.35
2019-04-05T01:47:53.080Z,2.85
2019-04-05T01:50:30.843Z,2.80
2019-04-05T01:53:08.933Z,3.08
2019-04-05T01:55:47.960Z,3.65
2019-04-05T01:58:25.659Z,3.27
2019-04-05T02:01:03.342Z,2.92
2019-04-05T02:03:38.607Z,3.30
2019-04-05T02:06:16.280Z,3.72
2019-04-05T02:08:54.212Z,3.10
2019-04-05T02:11:32.074Z,4.08
2019-04-05T02:14:07.369Z,2.83
2019-04-05T02:16:42.828Z,3.05
2019-04-05T02:19:18.311Z,2.62
2019-04-05T02:21:53.405Z,3.27
2019-04-05T02:24:31.319Z,3.80
2019-04-05T02:27:09.204Z,3.40
2019-04-05T02:29:49.775Z,3.35
2019-04-05T02:32:27.643Z,2.67
2019-04-05T02:35:05.357Z,2.17
2019-04-05T02:37:40.705Z,2.45
2019-04-05T02:40:19.468Z,2.80
2019-04-05T02:42:59.353Z,2.67
2019-04-05T02:45:36.217Z,2.08
2019-04-05T02:48:15.594Z,2.75
2019-04-05T02:50:55.429Z,2.83
2019-04-05T02:53:35.270Z,2.52
2019-04-05T02:56:14.004Z,2.65
2019-04-05T02:58:52.410Z,3.22
2019-04-05T03:01:30.631Z,3.27
2019-04-05T03:04:08.924Z,3.17
2019-04-05T03:06:47.180Z,2.60
2019-04-05T03:09:25.032Z,2.12
2019-04-05T03:12:03.922Z,2.72
2019-04-05T03:14:42.741Z,2.85
2019-04-05T03:17:20.788Z,3.42
2019-04-05T03:20:00.297Z,3.40
2019-04-05T03:22:42.679Z,3.12
2019-04-05T03:25:20.391Z,2.70
2019-04-05T03:27:58.212Z,2.87
2019-04-05T03:30:33.636Z,2.95
2019-04-05T03:33:11.981Z,2.72
2019-04-05T03:35:47.342Z,3.05
2019-04-05T03:38:25.530Z,2.60
2019-04-05T03:41:03.475Z,3.52
2019-04-05T03:43:41.347Z,2.83
2019-04-05T03:46:19.390Z,3.72
2019-04-05T03:48:57.396Z,2.10
2019-04-05T03:51:35.864Z,2.70
2019-04-05T03:54:15.141Z,2.47
2019-04-05T03:56:52.790Z,2.75
2019-04-05T03:59:30.460Z,2.30
2019-04-05T04:02:08.223Z,2.20
2019-04-05T04:04:46.091Z,2.42
2019-04-05T04:07:23.946Z,3.12
2019-04-05T04:10:01.775Z,2.30
2019-04-05T04:12:39.639Z,2.95
2019-04-05T04:15:20.629Z,3.35
2019-04-05T04:17:56.911Z,2.37
2019-04-05T04:20:52.844Z,2.22
2019-04-05T04:23:33.074Z,2.37
2019-04-05T04:26:08.392Z,2.55
2019-04-05T04:28:43.543Z,2.90
2019-04-05T04:31:22.051Z,2.98
2019-04-05T04:33:57.203Z,2.50
2019-04-05T04:36:35.179Z,2.47
2019-04-05T04:39:10.986Z,2.80
2019-04-05T04:41:48.602Z,3.05
2019-04-05T04:44:26.474Z,2.42
2019-04-05T18:06:30.415Z,11.43
2019-04-05T18:09:05.585Z,11.75
2019-04-05T18:11:43.454Z,11.45
2019-04-05T18:14:21.305Z,10.50
2019-04-05T18:16:56.545Z,11.18
2019-04-05T18:19:34.013Z,10.90
2019-04-05T18:22:11.641Z,11.22
2019-04-05T18:24:49.338Z,11.15
2019-04-05T18:27:24.499Z,10.50
2019-04-05T18:30:01.911Z,10.48
2019-04-05T18:32:39.618Z,11.35
2019-04-05T18:35:17.588Z,10.58
2019-04-05T18:37:55.157Z,11.60
2019-04-05T18:40:39.895Z,10.95
2019-04-05T18:43:12.395Z,10.95
2019-04-05T18:45:50.032Z,11.85
2019-04-05T18:48:25.166Z,11.20
2019-04-05T18:51:02.989Z,11.43
2019-04-05T18:53:40.889Z,11.18
2019-04-05T18:56:18.455Z,11.12
2019-04-05T18:58:56.061Z,10.85
2019-04-05T19:01:33.989Z,11.15
2019-04-05T19:04:11.698Z,11.38
2019-04-05T19:06:46.817Z,10.88
2019-04-05T19:09:24.405Z,11.28
2019-04-05T19:12:04.023Z,11.22
2019-04-05T19:14:39.190Z,11.97
2019-04-05T19:17:23.709Z,11.53
2019-04-05T19:19:55.510Z,11.50
2019-04-05T19:22:33.185Z,11.00
2019-04-05T19:25:11.215Z,11.20
2019-04-05T19:27:46.369Z,10.38
2019-04-05T19:48:53.063Z,10.43
2019-04-05T19:51:30.779Z,11.10
2019-04-05T19:54:08.917Z,10.78
2019-04-05T19:56:46.662Z,11.60
2019-04-05T19:59:24.315Z,11.85
2019-04-05T20:02:02.041Z,10.88
2019-04-05T20:04:39.880Z,10.38
2019-04-05T20:07:17.656Z,11.15
2019-04-05T20:09:55.539Z,10.95
2019-04-05T20:12:33.324Z,10.43
2019-04-05T20:15:08.708Z,11.85
2019-04-05T20:17:43.808Z,11.65
2019-04-05T20:20:21.814Z,12.05
2019-04-05T20:22:59.540Z,11.18
2019-04-05T20:25:37.330Z,11.28
2019-04-05T20:28:12.616Z,11.90
2019-04-05T20:30:47.719Z,11.57
2019-04-05T20:33:25.168Z,11.43
2019-04-05T20:36:04.755Z,11.65
2019-04-05T20:38:42.461Z,11.18
2019-04-05T20:41:20.087Z,11.40
2019-04-05T20:43:58.308Z,11.28
2019-04-05T20:46:36.841Z,11.63
2019-04-05T20:49:14.527Z,11.43
2019-04-05T20:51:52.179Z,12.35
2019-04-05T20:54:30.062Z,11.53
2019-04-05T20:57:07.586Z,11.50
2019-04-05T20:59:45.374Z,12.25
2019-04-05T21:02:23.127Z,12.13
2019-04-05T21:05:00.935Z,12.03
2019-04-05T21:07:38.568Z,12.00
2019-04-05T21:10:14.735Z,11.93
2019-04-05T21:12:52.223Z,11.68
2019-04-05T21:15:29.971Z,11.18
2019-04-05T21:18:07.884Z,12.63
2019-04-05T21:20:43.340Z,12.30
2019-04-05T21:23:20.849Z,12.70
2019-04-05T21:25:56.047Z,12.55
2019-04-05T21:28:33.727Z,11.60
2019-04-05T21:31:11.533Z,12.30
2019-04-05T21:33:49.175Z,11.73
2019-04-05T21:36:27.539Z,11.53
2019-04-05T21:39:05.419Z,10.72
2019-04-05T21:41:43.119Z,10.13
2019-04-05T21:44:20.739Z,11.20
2019-04-05T21:46:58.607Z,10.72
2019-04-05T21:49:36.234Z,10.90
2019-04-05T21:52:14.440Z,11.22
2019-04-05T21:54:52.099Z,10.88
2019-04-05T21:57:29.687Z,10.72
2019-04-05T22:00:07.328Z,10.85
2019-04-05T22:02:45.282Z,11.12
2019-04-05T22:05:22.815Z,10.32
2019-04-05T22:08:00.339Z,10.15
2019-04-05T22:10:37.978Z,10.50
2019-04-05T22:13:15.663Z,11.08
2019-04-05T22:15:53.208Z,10.25
2019-04-05T22:18:30.754Z,10.32
2019-04-05T22:21:08.485Z,9.70
2019-04-05T22:23:46.989Z,9.55
2019-04-05T22:26:24.748Z,9.85
2019-04-05T22:29:03.909Z,9.65
2019-04-05T22:31:41.486Z,9.40
2019-04-05T22:34:19.220Z,9.88
2019-04-05T22:36:56.791Z,9.68
2019-04-05T22:39:34.502Z,9.23
2019-04-05T22:42:09.874Z,9.33
2019-04-05T22:44:45.269Z,8.90
2019-04-05T22:47:22.650Z,8.53
2019-04-05T22:49:57.817Z,8.88
2019-04-05T22:52:32.778Z,9.20
2019-04-05T22:55:11.997Z,8.63
2019-04-05T22:57:46.875Z,9.38
2019-04-05T23:00:22.139Z,8.63
2019-04-05T23:02:57.210Z,8.13
2019-04-05T23:05:35.059Z,8.40
2019-04-05T23:08:10.156Z,8.58
2019-04-05T23:10:46.406Z,8.45
2019-04-05T23:13:28.965Z,8.63
2019-04-05T23:16:07.989Z,8.00
2019-04-05T23:18:43.096Z,7.87
2019-04-05T23:21:20.663Z,7.35
2019-04-05T23:23:58.210Z,7.83
2019-04-05T23:26:35.839Z,8.38
2019-04-05T23:29:13.462Z,7.97
2019-04-05T23:31:51.073Z,7.60
2019-04-05T23:34:28.622Z,7.20
2019-04-05T23:37:06.284Z,7.75
2019-04-05T23:39:43.865Z,7.17
2019-04-05T23:42:21.427Z,7.28
2019-04-05T23:44:58.981Z,6.60
2019-04-05T23:47:37.016Z,6.95
2019-04-05T23:50:14.640Z,7.15
2019-04-05T23:52:52.238Z,6.70
2019-04-05T23:55:33.492Z,6.85
2019-04-05T23:58:08.523Z,6.75
